Time;durP1;ratioP1;P1;durP2;ratioP2;P2;SDS_P1;SDS_P2;PMS_P1;PMS_P2;Temp;Humidity;BMP_temperature;BMP_pressure;BME280_temperature;BME280_humidity;BME280_pressure;Samples;Min_cycle;Max_cycle;Signal;HPM_P1;HPM_P2
2023/08/18 00:00:18;;;;;;;;;;;22.30;73.20;;;;;;5050636;28;1001;-67
2023/08/18 00:02:43;;;;;;;;;;;22.30;73.20;;;;;;5050666;28;870;-66
2023/08/18 00:05:09;;;;;;;;;;;22.30;73.20;;;;;;5050856;28;1910;-66
2023/08/18 00:07:34;;;;;;;;;;;22.30;73.20;;;;;;5041030;28;1373;-66
2023/08/18 00:10:03;;;;;;;;;;;22.30;73.20;;;;;;5045928;28;903;-66
2023/08/18 00:12:28;;;;;;;;;;;22.30;73.20;;;;;;5045819;28;861;-67
2023/08/18 00:14:54;;;;;;;;;;;22.30;73.20;;;;;;5050693;28;887;-67
2023/08/18 00:17:19;;;;;;;;;;;22.30;73.20;;;;;;5050651;28;1299;-67
2023/08/18 00:19:45;;;;;;;;;;;22.30;73.20;;;;;;5050074;28;1662;-66
2023/08/18 00:22:10;;;;;;;;;;;22.30;73.20;;;;;;5050279;28;844;-67
2023/08/18 00:24:36;;;;;;;;;;;22.30;73.20;;;;;;5049976;28;1902;-66
2023/08/18 00:27:02;;;;;;;;;;;22.30;73.20;;;;;;5050237;28;1292;-66
2023/08/18 00:29:27;;;;;;;;;;;22.30;73.20;;;;;;5048541;28;877;-67
2023/08/18 00:31:53;;;;;;;;;;;22.30;73.20;;;;;;5049593;28;903;-66
2023/08/18 00:34:18;;;;;;;;;;;22.30;73.20;;;;;;5049846;28;868;-66
2023/08/18 00:36:44;;;;;;;;;;;22.30;73.20;;;;;;5050086;28;1260;-67
2023/08/18 00:39:09;;;;;;;;;;;22.30;73.20;;;;;;5050015;28;879;-66
2023/08/18 00:41:35;;;;;;;;;;;22.30;73.30;;;;;;5049395;28;1816;-66
2023/08/18 00:44:00;;;;;;;;;;;22.30;73.20;;;;;;5049903;28;1879;-66
2023/08/18 00:46:26;;;;;;;;;;;22.30;73.20;;;;;;5050306;28;1014;-67
2023/08/18 00:48:51;;;;;;;;;;;22.30;73.20;;;;;;5049351;28;1337;-67
2023/08/18 00:51:17;;;;;;;;;;;22.30;73.20;;;;;;5050199;28;832;-67
2023/08/18 00:53:43;;;;;;;;;;;22.30;73.20;;;;;;5045101;28;896;-66
2023/08/18 00:56:08;;;;;;;;;;;22.30;73.20;;;;;;5041188;28;986;-66
2023/08/18 00:58:36;;;;;;;;;;;22.30;73.20;;;;;;5042662;28;1327;-66
2023/08/18 01:01:02;;;;;;;;;;;22.30;73.20;;;;;;5040444;28;844;-66
2023/08/18 01:03:27;;;;;;;;;;;22.30;73.20;;;;;;5043701;28;1894;-66
2023/08/18 01:05:53;;;;;;;;;;;22.30;73.20;;;;;;5065443;28;1246;-66
2023/08/18 01:08:18;;;;;;;;;;;22.30;73.20;;;;;;5049047;28;1814;-66
2023/08/18 01:10:57;;;;;;;;;;;22.30;73.20;;;;;;5048797;28;843;-66
2023/08/18 01:13:27;;;;;;;;;;;22.30;73.20;;;;;;5049417;28;1343;-67
2023/08/18 01:15:52;;;;;;;;;;;22.30;73.20;;;;;;5048869;28;1497;-67
2023/08/18 01:18:18;;;;;;;;;;;22.30;73.30;;;;;;5047034;28;1347;-68
2023/08/18 01:20:43;;;;;;;;;;;22.30;73.30;;;;;;5044716;28;1414;-68
2023/08/18 01:23:09;;;;;;;;;;;22.30;73.20;;;;;;5045517;28;1253;-67
2023/08/18 01:25:34;;;;;;;;;;;22.30;73.30;;;;;;5045829;28;1953;-66
2023/08/18 01:28:00;;;;;;;;;;;22.30;73.20;;;;;;5048143;28;1354;-67
2023/08/18 01:30:33;;;;;;;;;;;22.30;73.30;;;;;;5044694;28;1424;-67
2023/08/18 01:33:04;;;;;;;;;;;22.30;73.20;;;;;;5045562;28;896;-68
2023/08/18 01:35:29;;;;;;;;;;;22.30;73.30;;;;;;5042942;28;931;-67
2023/08/18 01:37:55;;;;;;;;;;;22.30;73.30;;;;;;5042799;28;1349;-68
2023/08/18 01:40:21;;;;;;;;;;;22.30;73.30;;;;;;5044948;28;840;-68
2023/08/18 01:42:46;;;;;;;;;;;22.30;73.30;;;;;;5045426;28;1264;-67
2023/08/18 01:45:14;;;;;;;;;;;22.30;73.20;;;;;;5053512;28;1934;-68
2023/08/18 01:47:40;;;;;;;;;;;22.30;73.30;;;;;;5050771;28;1321;-67
2023/08/18 01:50:06;;;;;;;;;;;22.30;73.30;;;;;;5052684;28;1065;-66
2023/08/18 01:52:31;;;;;;;;;;;22.30;73.30;;;;;;5053428;28;808;-66
2023/08/18 01:54:57;;;;;;;;;;;22.30;73.30;;;;;;5046193;28;1088;-66
2023/08/18 01:57:22;;;;;;;;;;;22.20;73.20;;;;;;5047770;28;1283;-66
2023/08/18 01:59:48;;;;;;;;;;;22.30;73.30;;;;;;5052615;28;1081;-66
2023/08/18 02:02:13;;;;;;;;;;;22.30;73.30;;;;;;5052975;28;899;-67
2023/08/18 02:04:38;;;;;;;;;;;22.30;73.30;;;;;;5051675;28;1979;-66
2023/08/18 02:07:04;;;;;;;;;;;22.30;73.30;;;;;;5052789;28;1341;-66
2023/08/18 02:09:29;;;;;;;;;;;22.30;73.30;;;;;;5052632;28;854;-66
2023/08/18 02:11:55;;;;;;;;;;;22.30;73.30;;;;;;5052939;28;922;-67
2023/08/18 02:14:21;;;;;;;;;;;22.30;73.30;;;;;;5044928;28;1283;-67
2023/08/18 02:16:47;;;;;;;;;;;22.30;73.30;;;;;;5052643;28;1212;-67
2023/08/18 02:19:12;;;;;;;;;;;22.30;73.30;;;;;;5043956;28;1372;-66
2023/08/18 02:21:38;;;;;;;;;;;22.30;73.30;;;;;;5052636;28;867;-66
2023/08/18 02:24:04;;;;;;;;;;;22.30;73.30;;;;;;5052814;28;1963;-67
2023/08/18 02:26:29;;;;;;;;;;;22.20;74.00;;;;;;5052778;28;879;-67
2023/08/18 02:28:55;;;;;;;;;;;22.30;73.30;;;;;;5047270;28;1278;-66
2023/08/18 02:31:20;;;;;;;;;;;22.30;73.30;;;;;;5051666;28;900;-66
2023/08/18 02:33:46;;;;;;;;;;;22.30;73.40;;;;;;5052701;28;865;-66
2023/08/18 02:36:12;;;;;;;;;;;22.30;73.40;;;;;;5052627;28;879;-66
2023/08/18 02:38:38;;;;;;;;;;;22.30;73.30;;;;;;5052016;28;1322;-66
2023/08/18 02:41:03;;;;;;;;;;;22.30;73.30;;;;;;5046845;28;878;-66
2023/08/18 02:43:29;;;;;;;;;;;22.30;73.30;;;;;;5052243;28;1965;-67
2023/08/18 02:45:55;;;;;;;;;;;22.30;73.30;;;;;;5052665;28;1037;-67
2023/08/18 02:48:21;;;;;;;;;;;22.20;73.30;;;;;;5051742;28;1243;-66
2023/08/18 02:50:46;;;;;;;;;;;22.30;73.40;;;;;;5051915;28;895;-66
2023/08/18 02:53:13;;;;;;;;;;;22.20;73.30;;;;;;5050909;28;816;-68
2023/08/18 02:55:39;;;;;;;;;;;22.20;73.30;;;;;;5051849;28;788;-67
2023/08/18 02:58:05;;;;;;;;;;;22.30;73.30;;;;;;5051323;28;1318;-68
2023/08/18 03:00:31;;;;;;;;;;;22.30;73.30;;;;;;5052843;28;892;-68
2023/08/18 03:02:57;;;;;;;;;;;22.30;73.30;;;;;;5052859;28;840;-68
2023/08/18 03:05:23;;;;;;;;;;;22.20;73.30;;;;;;5052456;28;1906;-69
2023/08/18 03:07:48;;;;;;;;;;;22.30;73.30;;;;;;5052681;28;1378;-68
2023/08/18 03:10:14;;;;;;;;;;;22.20;73.30;;;;;;5052047;28;871;-69
2023/08/18 03:12:39;;;;;;;;;;;22.30;73.40;;;;;;5051948;28;899;-69
2023/08/18 03:15:05;;;;;;;;;;;22.30;73.40;;;;;;5056548;28;883;-66
2023/08/18 03:17:31;;;;;;;;;;;22.30;73.40;;;;;;5051935;28;1406;-69
2023/08/18 03:19:56;;;;;;;;;;;22.20;73.30;;;;;;5050965;28;1302;-68
2023/08/18 03:22:21;;;;;;;;;;;22.30;73.40;;;;;;5051669;28;879;-67
2023/08/18 03:24:47;;;;;;;;;;;22.30;73.40;;;;;;5051367;28;1906;-69
2023/08/18 03:27:12;;;;;;;;;;;22.20;73.30;;;;;;5051680;28;1254;-69
2023/08/18 03:29:38;;;;;;;;;;;22.20;73.30;;;;;;5050755;28;916;-69
2023/08/18 03:32:04;;;;;;;;;;;22.20;73.30;;;;;;5051790;28;864;-70
2023/08/18 03:34:29;;;;;;;;;;;22.20;73.40;;;;;;5051773;28;866;-69
2023/08/18 03:36:55;;;;;;;;;;;22.20;73.30;;;;;;5051695;28;1416;-69
2023/08/18 03:39:20;;;;;;;;;;;22.30;73.40;;;;;;5050661;28;875;-69
2023/08/18 03:41:46;;;;;;;;;;;22.20;73.40;;;;;;5051256;28;1069;-69
2023/08/18 03:44:12;;;;;;;;;;;22.30;73.40;;;;;;5051458;28;1957;-66
2023/08/18 03:46:37;;;;;;;;;;;22.20;73.30;;;;;;5050390;28;879;-68
2023/08/18 03:49:05;;;;;;;;;;;22.30;73.40;;;;;;5050755;28;1331;-68
2023/08/18 03:51:34;;;;;;;;;;;22.20;73.40;;;;;;5050829;28;903;-68
2023/08/18 03:53:59;;;;;;;;;;;22.20;73.30;;;;;;5051513;28;823;-70
2023/08/18 03:56:24;;;;;;;;;;;22.30;73.50;;;;;;5050714;28;943;-70
2023/08/18 03:58:50;;;;;;;;;;;22.20;73.40;;;;;;5050783;28;1256;-70
2023/08/18 04:01:15;;;;;;;;;;;22.20;73.40;;;;;;5050884;28;914;-71
2023/08/18 04:03:42;;;;;;;;;;;22.20;73.40;;;;;;5051077;28;1964;-70
2023/08/18 04:06:07;;;;;;;;;;;22.20;73.40;;;;;;5039053;28;868;-70
2023/08/18 04:08:37;;;;;;;;;;;22.20;73.40;;;;;;5050356;28;1337;-69
2023/08/18 04:11:06;;;;;;;;;;;22.30;73.40;;;;;;5051448;28;1214;-68
2023/08/18 04:13:31;;;;;;;;;;;22.20;73.40;;;;;;5050909;28;808;-70
2023/08/18 04:15:57;;;;;;;;;;;22.20;73.40;;;;;;5051059;28;1059;-69
2023/08/18 04:18:23;;;;;;;;;;;22.30;73.50;;;;;;5044532;28;1318;-69
2023/08/18 04:20:48;;;;;;;;;;;22.20;73.40;;;;;;5050872;28;1045;-69
2023/08/18 04:23:14;;;;;;;;;;;22.20;73.40;;;;;;5050790;28;1055;-69
2023/08/18 04:25:43;;;;;;;;;;;22.20;73.40;;;;;;5048935;28;1902;-68
2023/08/18 04:28:08;;;;;;;;;;;22.20;73.40;;;;;;5049007;28;1253;-68
2023/08/18 04:30:33;;;;;;;;;;;22.30;73.50;;;;;;5041905;28;876;-68
2023/08/18 04:32:59;;;;;;;;;;;22.20;73.40;;;;;;5050529;28;903;-68
2023/08/18 04:35:25;;;;;;;;;;;22.20;73.40;;;;;;5050730;28;1645;-68
2023/08/18 04:37:51;;;;;;;;;;;22.20;73.40;;;;;;5049820;28;1339;-69
2023/08/18 04:40:17;;;;;;;;;;;22.20;73.40;;;;;;5049878;28;860;-69
2023/08/18 04:42:42;;;;;;;;;;;22.20;73.40;;;;;;5047497;28;843;-68
2023/08/18 04:45:08;;;;;;;;;;;22.20;73.40;;;;;;5050575;28;1906;-69
2023/08/18 04:47:33;;;;;;;;;;;22.20;73.40;;;;;;5050588;28;1375;-69
2023/08/18 04:49:59;;;;;;;;;;;22.30;73.50;;;;;;5050042;28;907;-69
2023/08/18 04:52:25;;;;;;;;;;;22.20;73.40;;;;;;5044978;28;905;-68
2023/08/18 04:54:51;;;;;;;;;;;22.20;73.40;;;;;;5050734;28;915;-68
2023/08/18 04:57:17;;;;;;;;;;;22.20;73.40;;;;;;5049927;28;1345;-68
2023/08/18 04:59:42;;;;;;;;;;;22.20;73.40;;;;;;5049446;28;967;-68
2023/08/18 05:02:08;;;;;;;;;;;22.20;73.50;;;;;;5049820;28;851;-68
2023/08/18 05:04:33;;;;;;;;;;;22.20;73.40;;;;;;5050478;28;1963;-68
2023/08/18 05:06:59;;;;;;;;;;;22.20;73.40;;;;;;5049688;28;1351;-68
2023/08/18 05:09:25;;;;;;;;;;;22.20;73.40;;;;;;5049402;28;1356;-69
2023/08/18 05:11:50;;;;;;;;;;;22.20;73.40;;;;;;5048693;28;1182;-69
2023/08/18 05:14:16;;;;;;;;;;;22.20;73.40;;;;;;5050088;28;854;-68
2023/08/18 05:16:41;;;;;;;;;;;22.20;73.40;;;;;;5049591;28;1350;-69
2023/08/18 05:19:07;;;;;;;;;;;22.20;73.50;;;;;;5048612;28;1365;-69
2023/08/18 05:21:32;;;;;;;;;;;22.20;73.50;;;;;;5049913;28;1006;-69
2023/08/18 05:23:58;;;;;;;;;;;22.20;73.40;;;;;;5049954;28;1969;-69
2023/08/18 05:26:23;;;;;;;;;;;22.20;73.40;;;;;;5033228;28;1089;-69
2023/08/18 05:28:49;;;;;;;;;;;22.20;73.50;;;;;;5051003;28;1296;-69
2023/08/18 05:31:14;;;;;;;;;;;22.20;73.40;;;;;;5051297;28;772;-69
2023/08/18 05:33:40;;;;;;;;;;;22.20;73.50;;;;;;5044909;28;851;-68
2023/08/18 05:36:06;;;;;;;;;;;22.20;73.50;;;;;;5051686;28;811;-68
2023/08/18 05:38:31;;;;;;;;;;;22.20;73.50;;;;;;5050003;28;1355;-68
2023/08/18 05:41:07;;;;;;;;;;;22.20;73.50;;;;;;5050028;28;883;-68
2023/08/18 05:43:37;;;;;;;;;;;22.20;73.50;;;;;;5041853;28;1898;-70
2023/08/18 05:46:03;;;;;;;;;;;22.20;73.50;;;;;;5046975;28;894;-69
2023/08/18 05:48:29;;;;;;;;;;;22.20;73.50;;;;;;5049754;28;1355;-70
2023/08/18 05:50:54;;;;;;;;;;;22.20;73.40;;;;;;5051558;28;891;-68
2023/08/18 05:53:20;;;;;;;;;;;22.20;73.50;;;;;;5051763;28;926;-69
2023/08/18 05:55:46;;;;;;;;;;;22.20;73.50;;;;;;5051936;28;1069;-70
2023/08/18 05:58:12;;;;;;;;;;;22.20;73.50;;;;;;5050210;28;1263;-69
2023/08/18 06:00:38;;;;;;;;;;;22.20;73.50;;;;;;5042035;28;927;-68
2023/08/18 06:03:03;;;;;;;;;;;22.20;73.50;;;;;;5049491;28;859;-68
2023/08/18 06:05:29;;;;;;;;;;;22.20;73.50;;;;;;5049000;28;1984;-68
2023/08/18 06:07:54;;;;;;;;;;;22.20;73.50;;;;;;5048863;28;1546;-68
2023/08/18 06:10:20;;;;;;;;;;;22.20;73.50;;;;;;5045247;28;943;-69
2023/08/18 06:12:46;;;;;;;;;;;22.20;73.50;;;;;;5049227;28;820;-69
2023/08/18 06:15:12;;;;;;;;;;;22.20;73.50;;;;;;5031985;28;1425;-70
2023/08/18 06:17:38;;;;;;;;;;;22.20;73.50;;;;;;5049113;28;1265;-70
2023/08/18 06:20:03;;;;;;;;;;;22.20;73.40;;;;;;5040933;28;1025;-69
2023/08/18 06:22:29;;;;;;;;;;;22.20;74.00;;;;;;5042305;28;1683;-70
2023/08/18 06:24:54;;;;;;;;;;;22.30;74.50;;;;;;5047151;28;2002;-71
2023/08/18 06:27:20;;;;;;;;;;;22.30;74.70;;;;;;5048104;28;1315;-71
2023/08/18 06:29:45;;;;;;;;;;;22.30;75.10;;;;;;5041337;28;1174;-70
2023/08/18 06:32:11;;;;;;;;;;;22.30;75.70;;;;;;5044653;28;1190;-70
2023/08/18 06:34:36;;;;;;;;;;;22.30;75.30;;;;;;5053812;28;800;-70
2023/08/18 06:37:02;;;;;;;;;;;22.30;75.70;;;;;;5052657;28;1271;-66
2023/08/18 06:39:27;;;;;;;;;;;22.30;75.30;;;;;;5051791;28;1619;-68
2023/08/18 06:41:53;;;;;;;;;;;22.30;75.40;;;;;;5034154;28;1265;-70
2023/08/18 06:44:19;;;;;;;;;;;22.30;75.10;;;;;;5052245;28;1973;-70
2023/08/18 06:46:44;;;;;;;;;;;22.30;75.30;;;;;;5052899;28;1256;-70
2023/08/18 06:49:10;;;;;;;;;;;22.30;75.40;;;;;;5051690;28;855;-71
2023/08/18 06:51:35;;;;;;;;;;;22.40;75.60;;;;;;5051778;28;840;-70
2023/08/18 06:54:01;;;;;;;;;;;22.30;75.80;;;;;;5052325;28;935;-69
2023/08/18 06:56:26;;;;;;;;;;;22.40;76.00;;;;;;5067182;28;1153;-70
2023/08/18 06:58:52;;;;;;;;;;;22.40;76.60;;;;;;5051256;28;1259;-70
2023/08/18 07:01:18;;;;;;;;;;;22.40;76.70;;;;;;5050529;28;851;-70
2023/08/18 07:03:44;;;;;;;;;;;22.40;76.90;;;;;;5052107;28;1910;-69
2023/08/18 07:06:09;;;;;;;;;;;22.40;75.90;;;;;;5052706;28;823;-69
2023/08/18 07:08:34;;;;;;;;;;;22.40;76.50;;;;;;5045680;28;1606;-72
2023/08/18 07:11:00;;;;;;;;;;;22.40;76.30;;;;;;5045625;28;1021;-71
2023/08/18 07:13:25;;;;;;;;;;;22.40;75.80;;;;;;5051792;28;887;-69
2023/08/18 07:15:51;;;;;;;;;;;22.40;76.10;;;;;;5052801;28;874;-69
2023/08/18 07:18:16;;;;;;;;;;;22.40;76.80;;;;;;5051912;28;1341;-69
2023/08/18 07:20:42;;;;;;;;;;;22.50;77.20;;;;;;5053400;28;960;-69
2023/08/18 07:23:08;;;;;;;;;;;22.40;76.90;;;;;;5053150;28;879;-69
2023/08/18 07:25:33;;;;;;;;;;;22.50;76.60;;;;;;5052466;28;1893;-70
2023/08/18 07:27:59;;;;;;;;;;;22.50;76.50;;;;;;5051477;28;1391;-69
2023/08/18 07:30:24;;;;;;;;;;;22.50;76.90;;;;;;5047239;28;886;-69
2023/08/18 07:32:54;;;;;;;;;;;22.50;76.60;;;;;;5051265;28;1945;-69
2023/08/18 07:35:19;;;;;;;;;;;22.50;77.00;;;;;;5052147;28;1277;-68
2023/08/18 07:37:45;;;;;;;;;;;22.50;76.70;;;;;;5051593;28;1543;-69
2023/08/18 07:40:10;;;;;;;;;;;22.50;76.80;;;;;;5049911;28;1284;-68
2023/08/18 07:42:37;;;;;;;;;;;22.50;76.70;;;;;;5051659;28;826;-68
2023/08/18 07:45:02;;;;;;;;;;;22.50;76.80;;;;;;5051364;28;1901;-69
2023/08/18 07:47:28;;;;;;;;;;;22.50;76.70;;;;;;5051335;28;1338;-69
2023/08/18 07:49:54;;;;;;;;;;;22.50;77.10;;;;;;5043883;28;889;-68
2023/08/18 07:52:19;;;;;;;;;;;22.50;77.30;;;;;;5051239;28;820;-69
2023/08/18 07:54:44;;;;;;;;;;;22.50;77.30;;;;;;5051118;28;942;-69
2023/08/18 07:57:10;;;;;;;;;;;22.60;77.40;;;;;;5050865;28;1287;-69
2023/08/18 07:59:35;;;;;;;;;;;22.60;77.30;;;;;;5050481;28;913;-69
2023/08/18 08:02:02;;;;;;;;;;;22.60;77.00;;;;;;5051018;28;896;-71
2023/08/18 08:04:27;;;;;;;;;;;22.60;77.20;;;;;;5051392;28;1898;-70
2023/08/18 08:06:56;;;;;;;;;;;22.60;77.20;;;;;;5051013;28;1422;-70
2023/08/18 08:09:24;;;;;;;;;;;22.60;77.20;;;;;;5050043;28;919;-70
2023/08/18 08:11:50;;;;;;;;;;;22.60;77.10;;;;;;5050740;28;907;-71
2023/08/18 08:14:16;;;;;;;;;;;22.60;77.40;;;;;;5050967;28;1248;-70
2023/08/18 08:16:42;;;;;;;;;;;22.60;77.30;;;;;;5045098;28;1280;-70
2023/08/18 08:19:09;;;;;;;;;;;22.70;77.60;;;;;;5050051;28;1428;-71
2023/08/18 08:21:35;;;;;;;;;;;22.70;77.50;;;;;;5044649;28;894;-71
2023/08/18 08:24:00;;;;;;;;;;;22.70;77.70;;;;;;5050768;28;2122;-71
2023/08/18 08:26:25;;;;;;;;;;;22.70;77.10;;;;;;5044351;28;1123;-71
2023/08/18 08:28:51;;;;;;;;;;;22.70;75.80;;;;;;5052675;28;1347;-71
2023/08/18 08:31:16;;;;;;;;;;;22.70;76.60;;;;;;5050672;28;1185;-71
2023/08/18 08:33:42;;;;;;;;;;;22.70;76.80;;;;;;5050229;28;899;-70
2023/08/18 08:36:07;;;;;;;;;;;22.70;76.90;;;;;;5043329;28;880;-71
2023/08/18 08:38:33;;;;;;;;;;;22.70;77.10;;;;;;5048411;28;1263;-71
2023/08/18 08:40:59;;;;;;;;;;;22.70;77.00;;;;;;5050501;28;837;-71
2023/08/18 08:43:24;;;;;;;;;;;22.70;77.00;;;;;;5039433;28;1212;-71
2023/08/18 08:45:50;;;;;;;;;;;22.70;76.80;;;;;;5050044;28;1894;-71
2023/08/18 08:48:16;;;;;;;;;;;22.70;76.70;;;;;;5049691;28;1264;-71
2023/08/18 08:50:42;;;;;;;;;;;22.70;76.50;;;;;;5045376;28;943;-71
2023/08/18 08:53:10;;;;;;;;;;;22.70;76.40;;;;;;5038509;28;875;-72
2023/08/18 08:55:36;;;;;;;;;;;22.70;76.10;;;;;;5041850;28;913;-72
2023/08/18 08:58:01;;;;;;;;;;;22.70;75.80;;;;;;5049113;28;1260;-72
2023/08/18 09:00:27;;;;;;;;;;;22.70;75.60;;;;;;5050256;28;836;-71
2023/08/18 09:02:52;;;;;;;;;;;22.70;76.00;;;;;;5049925;28;823;-71
2023/08/18 09:05:18;;;;;;;;;;;22.70;76.00;;;;;;5050269;28;1995;-71
2023/08/18 09:07:43;;;;;;;;;;;22.70;76.00;;;;;;5049454;28;1337;-71
2023/08/18 09:10:09;;;;;;;;;;;22.80;76.00;;;;;;5049266;28;810;-72
2023/08/18 09:12:34;;;;;;;;;;;22.80;75.90;;;;;;5043047;28;888;-72
2023/08/18 09:15:00;;;;;;;;;;;22.80;75.70;;;;;;5046801;28;905;-72
2023/08/18 09:17:28;;;;;;;;;;;22.80;75.60;;;;;;5049518;28;1289;-70
2023/08/18 09:19:57;;;;;;;;;;;22.80;75.60;;;;;;5048685;28;1433;-71
2023/08/18 09:22:22;;;;;;;;;;;22.80;75.50;;;;;;5045228;28;890;-72
2023/08/18 09:24:51;;;;;;;;;;;22.80;76.00;;;;;;5048383;28;1905;-71
2023/08/18 09:27:17;;;;;;;;;;;22.90;75.20;;;;;;5045113;28;1273;-72
2023/08/18 09:29:42;;;;;;;;;;;22.90;74.60;;;;;;5049321;28;844;-72
2023/08/18 09:32:08;;;;;;;;;;;22.90;73.50;;;;;;5049507;28;1014;-70
2023/08/18 09:34:43;;;;;;;;;;;22.90;73.20;;;;;;5048905;28;1952;-71
2023/08/18 09:37:09;;;;;;;;;;;22.90;73.00;;;;;;5016845;28;4330;-71
2023/08/18 09:39:34;;;;;;;;;;;23.00;71.70;;;;;;5048368;28;1192;-70
2023/08/18 09:42:00;;;;;;;;;;;23.00;71.80;;;;;;5048808;28;871;-71
2023/08/18 09:44:26;;;;;;;;;;;23.00;71.70;;;;;;5041463;28;1906;-71
2023/08/18 09:46:55;;;;;;;;;;;23.00;71.90;;;;;;5049955;28;1362;-71
2023/08/18 09:49:20;;;;;;;;;;;23.00;71.90;;;;;;5040423;28;924;-70
2023/08/18 09:51:47;;;;;;;;;;;23.00;71.70;;;;;;5049280;28;872;-72
2023/08/18 09:54:12;;;;;;;;;;;23.00;71.70;;;;;;5049819;28;871;-71
2023/08/18 09:56:38;;;;;;;;;;;23.00;72.00;;;;;;5049427;28;847;-72
2023/08/18 09:59:19;;;;;;;;;;;23.00;72.50;;;;;;5043434;28;1235;-72
2023/08/18 10:01:44;;;;;;;;;;;23.00;73.40;;;;;;5047667;28;883;-72
2023/08/18 10:04:10;;;;;;;;;;;23.00;73.50;;;;;;5042187;28;1902;-71
2023/08/18 10:06:39;;;;;;;;;;;23.00;73.40;;;;;;5053647;28;862;-70
2023/08/18 10:09:04;;;;;;;;;;;23.00;73.40;;;;;;5053400;28;1510;-71
2023/08/18 10:11:30;;;;;;;;;;;23.10;73.20;;;;;;5046550;28;1049;-74
2023/08/18 10:13:56;;;;;;;;;;;23.10;73.20;;;;;;5045912;28;2128;-74
2023/08/18 10:16:21;;;;;;;;;;;23.10;73.20;;;;;;5048894;28;1420;-74
2023/08/18 10:18:56;;;;;;;;;;;23.10;73.70;;;;;;5045779;28;1299;-73
2023/08/18 10:21:22;;;;;;;;;;;23.10;73.50;;;;;;5052060;28;1084;-73
2023/08/18 10:23:47;;;;;;;;;;;23.10;74.10;;;;;;5050329;28;1971;-72
2023/08/18 10:26:14;;;;;;;;;;;23.10;74.40;;;;;;5046336;28;1272;-73
2023/08/18 10:28:40;;;;;;;;;;;23.10;74.50;;;;;;5048794;28;1455;-73
2023/08/18 10:31:05;;;;;;;;;;;23.20;74.50;;;;;;5051167;28;1600;-73
2023/08/18 10:33:32;;;;;;;;;;;23.20;73.90;;;;;;5050491;28;1828;-73
2023/08/18 10:36:01;;;;;;;;;;;23.20;73.60;;;;;;5050922;28;1428;-73
2023/08/18 10:38:28;;;;;;;;;;;23.20;73.60;;;;;;5042683;28;1421;-73
2023/08/18 10:40:53;;;;;;;;;;;23.20;73.60;;;;;;5036150;28;1510;-73
2023/08/18 10:43:19;;;;;;;;;;;23.20;72.80;;;;;;5051038;28;1403;-73
2023/08/18 10:45:48;;;;;;;;;;;23.20;72.40;;;;;;5050740;28;1899;-72
2023/08/18 10:48:14;;;;;;;;;;;23.30;72.60;;;;;;5049908;28;1508;-74
2023/08/18 10:50:41;;;;;;;;;;;23.30;72.70;;;;;;5050900;28;1322;-72
2023/08/18 10:53:07;;;;;;;;;;;23.30;72.70;;;;;;5046064;28;1377;-72
2023/08/18 10:55:33;;;;;;;;;;;23.30;72.20;;;;;;5050938;28;1342;-71
2023/08/18 10:57:58;;;;;;;;;;;23.30;72.30;;;;;;5039287;28;1329;-73
2023/08/18 11:00:24;;;;;;;;;;;23.30;72.20;;;;;;5049131;28;835;-73
2023/08/18 11:02:50;;;;;;;;;;;23.30;71.60;;;;;;5048471;28;2308;-72
2023/08/18 11:05:16;;;;;;;;;;;23.30;71.50;;;;;;5045973;28;1963;-71
2023/08/18 11:07:42;;;;;;;;;;;23.40;71.30;;;;;;5032483;28;5595;-71
2023/08/18 11:10:15;;;;;;;;;;;23.40;71.20;;;;;;5036619;28;1401;-71
2023/08/18 11:12:41;;;;;;;;;;;23.40;71.10;;;;;;5051038;28;820;-71
2023/08/18 11:15:07;;;;;;;;;;;23.40;71.50;;;;;;5051159;28;903;-71
2023/08/18 11:17:32;;;;;;;;;;;23.40;71.90;;;;;;5052180;28;1414;-71
2023/08/18 11:19:58;;;;;;;;;;;23.40;72.00;;;;;;5051568;28;1378;-71
2023/08/18 11:22:23;;;;;;;;;;;23.40;71.90;;;;;;5051349;28;961;-71
2023/08/18 11:24:49;;;;;;;;;;;23.40;71.90;;;;;;5051716;28;1934;-71
2023/08/18 11:27:15;;;;;;;;;;;23.40;71.90;;;;;;5046023;28;1288;-71
2023/08/18 11:29:40;;;;;;;;;;;23.40;71.80;;;;;;5050812;28;899;-71
2023/08/18 11:32:10;;;;;;;;;;;23.40;71.60;;;;;;5051851;28;822;-71
2023/08/18 11:34:36;;;;;;;;;;;23.50;71.40;;;;;;5047127;28;1523;-71
2023/08/18 11:37:01;;;;;;;;;;;23.40;71.30;;;;;;5051421;28;1351;-70
2023/08/18 11:39:30;;;;;;;;;;;23.40;71.20;;;;;;5051548;28;824;-69
2023/08/18 11:41:55;;;;;;;;;;;23.40;71.30;;;;;;5047879;28;935;-70
2023/08/18 11:44:21;;;;;;;;;;;23.30;71.40;;;;;;5051822;28;1902;-70
2023/08/18 11:46:46;;;;;;;;;;;23.30;71.60;;;;;;5047930;28;1490;-70
2023/08/18 11:49:15;;;;;;;;;;;23.20;71.80;;;;;;5058992;28;1199;-71
2023/08/18 11:52:14;;;;;;;;;;;23.20;72.00;;;;;;5051899;28;896;-71
2023/08/18 11:54:41;;;;;;;;;;;23.10;72.20;;;;;;5018933;28;1280;-70
2023/08/18 11:57:07;;;;;;;;;;;23.10;72.40;;;;;;5056495;28;1338;-71
2023/08/18 11:59:33;;;;;;;;;;;23.00;72.50;;;;;;5050908;28;1006;-70
2023/08/18 12:01:59;;;;;;;;;;;23.00;72.60;;;;;;5051330;28;841;-72
2023/08/18 12:04:28;;;;;;;;;;;23.00;72.70;;;;;;5057966;28;1983;-70
2023/08/18 12:06:53;;;;;;;;;;;23.00;72.90;;;;;;5042217;28;1338;-70
2023/08/18 12:09:19;;;;;;;;;;;22.90;72.90;;;;;;5041202;28;915;-70
2023/08/18 12:11:45;;;;;;;;;;;22.90;72.90;;;;;;5050669;28;800;-70
2023/08/18 12:14:10;;;;;;;;;;;22.90;73.00;;;;;;5050815;28;944;-69
2023/08/18 12:16:36;;;;;;;;;;;22.90;73.10;;;;;;5051055;28;913;-70
2023/08/18 12:19:04;;;;;;;;;;;22.90;73.10;;;;;;5050204;28;1357;-70
2023/08/18 12:21:33;;;;;;;;;;;22.90;73.10;;;;;;5050671;28;972;-70
2023/08/18 12:23:58;;;;;;;;;;;22.90;73.20;;;;;;5046993;28;1945;-70
2023/08/18 12:26:24;;;;;;;;;;;22.80;73.20;;;;;;5050474;28;856;-70
2023/08/18 12:28:50;;;;;;;;;;;22.80;73.20;;;;;;5049380;28;1329;-70
2023/08/18 12:31:17;;;;;;;;;;;22.80;73.20;;;;;;5049876;28;968;-69
2023/08/18 12:33:44;;;;;;;;;;;22.80;73.30;;;;;;5038854;28;1544;-66
2023/08/18 12:36:10;;;;;;;;;;;22.80;73.30;;;;;;5046882;28;804;-68
2023/08/18 12:38:35;;;;;;;;;;;22.80;73.40;;;;;;5049048;28;1281;-68
2023/08/18 12:41:02;;;;;;;;;;;22.80;73.40;;;;;;5050159;28;1194;-68
2023/08/18 12:43:28;;;;;;;;;;;22.80;73.40;;;;;;5046571;28;1908;-70
2023/08/18 12:45:53;;;;;;;;;;;22.80;73.40;;;;;;5041591;28;1969;-67
2023/08/18 12:48:19;;;;;;;;;;;22.70;73.40;;;;;;5048839;28;1310;-69
2023/08/18 12:50:45;;;;;;;;;;;22.70;73.50;;;;;;5056176;28;1337;-68
2023/08/18 12:53:10;;;;;;;;;;;22.80;73.50;;;;;;5048972;28;828;-67
2023/08/18 12:55:36;;;;;;;;;;;22.70;73.50;;;;;;5050132;28;839;-67
2023/08/18 12:58:01;;;;;;;;;;;22.70;73.50;;;;;;5049510;28;1319;-67
2023/08/18 13:00:27;;;;;;;;;;;22.70;73.50;;;;;;5050070;28;921;-67
2023/08/18 13:02:52;;;;;;;;;;;22.70;73.50;;;;;;5051909;28;1462;-67
2023/08/18 13:05:18;;;;;;;;;;;22.70;73.50;;;;;;5050073;28;1898;-67
2023/08/18 13:07:43;;;;;;;;;;;22.70;73.60;;;;;;5050091;28;1353;-68
2023/08/18 13:10:09;;;;;;;;;;;22.70;73.50;;;;;;5049333;28;851;-67
2023/08/18 13:12:34;;;;;;;;;;;22.70;73.60;;;;;;5049819;28;911;-67
2023/08/18 13:15:00;;;;;;;;;;;22.70;73.60;;;;;;5050246;28;831;-68
2023/08/18 13:17:25;;;;;;;;;;;22.70;73.60;;;;;;5050099;28;1211;-67
2023/08/18 13:19:51;;;;;;;;;;;22.70;73.60;;;;;;5049295;28;901;-67
2023/08/18 13:22:16;;;;;;;;;;;22.70;73.60;;;;;;5050003;28;1022;-67
2023/08/18 13:24:42;;;;;;;;;;;22.70;73.60;;;;;;5049903;28;1902;-68
2023/08/18 13:27:07;;;;;;;;;;;22.70;73.70;;;;;;5050112;28;1614;-67
2023/08/18 13:29:33;;;;;;;;;;;22.70;73.70;;;;;;5049600;28;823;-68
2023/08/18 13:31:58;;;;;;;;;;;22.70;73.60;;;;;;5050149;28;807;-67
2023/08/18 13:34:23;;;;;;;;;;;22.60;73.60;;;;;;5050212;28;911;-67
2023/08/18 13:36:49;;;;;;;;;;;22.70;73.70;;;;;;5052819;28;1515;-67
2023/08/18 13:39:15;;;;;;;;;;;22.70;73.70;;;;;;5046341;28;853;-67
2023/08/18 13:41:41;;;;;;;;;;;22.70;73.70;;;;;;5053561;28;860;-67
2023/08/18 13:44:06;;;;;;;;;;;22.70;73.70;;;;;;5053637;28;1907;-67
2023/08/18 13:46:32;;;;;;;;;;;22.70;73.70;;;;;;5054131;28;912;-67
2023/08/18 13:48:57;;;;;;;;;;;22.70;73.70;;;;;;5053166;28;1363;-68
2023/08/18 13:51:23;;;;;;;;;;;22.70;73.70;;;;;;5050127;28;848;-67
2023/08/18 13:53:48;;;;;;;;;;;22.60;73.60;;;;;;5053715;28;876;-67
2023/08/18 13:56:14;;;;;;;;;;;22.70;73.70;;;;;;5056687;28;907;-67
2023/08/18 13:58:39;;;;;;;;;;;22.60;73.70;;;;;;5052749;28;1291;-67
2023/08/18 14:01:05;;;;;;;;;;;22.60;73.70;;;;;;5046715;28;891;-67
2023/08/18 14:03:33;;;;;;;;;;;22.60;73.60;;;;;;5048486;28;1155;-67
2023/08/18 14:05:58;;;;;;;;;;;22.60;73.60;;;;;;5048597;28;1938;-67
2023/08/18 14:08:24;;;;;;;;;;;22.60;73.60;;;;;;5052142;28;1340;-68
2023/08/18 14:10:50;;;;;;;;;;;22.60;73.70;;;;;;5051098;28;1237;-68
2023/08/18 14:13:15;;;;;;;;;;;22.60;73.60;;;;;;5052126;28;906;-67
2023/08/18 14:15:41;;;;;;;;;;;22.60;73.70;;;;;;5052777;28;867;-68
2023/08/18 14:18:06;;;;;;;;;;;22.60;73.60;;;;;;5051764;28;1236;-68
2023/08/18 14:20:32;;;;;;;;;;;22.60;73.70;;;;;;5052301;28;1523;-67
2023/08/18 14:22:57;;;;;;;;;;;22.60;73.70;;;;;;5052479;28;1072;-67
2023/08/18 14:25:23;;;;;;;;;;;22.60;73.70;;;;;;5052317;28;1898;-67
2023/08/18 14:27:49;;;;;;;;;;;22.60;73.70;;;;;;5051596;28;1254;-67